sensor_id;sensor_type;location;lat;lon;timestamp;pressure;altitude;pressure_sealevel;temperature;humidity
4705;BME280;2366;51.332;6.610;2023-04-26T00:02:06;101744.78;;;7.28;62.67
4705;BME280;2366;51.332;6.610;2023-04-26T00:04:31;101744.84;;;7.26;62.76
4705;BME280;2366;51.332;6.610;2023-04-26T00:06:58;101750.22;;;7.23;63.24
4705;BME280;2366;51.332;6.610;2023-04-26T00:09:24;101750.31;;;7.20;62.92
4705;BME280;2366;51.332;6.610;2023-04-26T00:11:50;101753.03;;;7.17;62.83
4705;BME280;2366;51.332;6.610;2023-04-26T00:14:15;101751.38;;;7.14;63.41
4705;BME280;2366;51.332;6.610;2023-04-26T00:16:41;101746.94;;;7.15;63.02
4705;BME280;2366;51.332;6.610;2023-04-26T00:19:06;101753.19;;;7.12;63.27
4705;BME280;2366;51.332;6.610;2023-04-26T00:21:34;101747.06;;;7.12;63.36
4705;BME280;2366;51.332;6.610;2023-04-26T00:24:00;101751.59;;;7.07;63.63
4705;BME280;2366;51.332;6.610;2023-04-26T00:26:26;101742.97;;;7.02;64.05
4705;BME280;2366;51.332;6.610;2023-04-26T00:28:51;101744.91;;;6.95;63.85
4705;BME280;2366;51.332;6.610;2023-04-26T00:31:17;101744.97;;;6.93;64.17
4705;BME280;2366;51.332;6.610;2023-04-26T00:33:43;101743.31;;;6.89;64.06
4705;BME280;2366;51.332;6.610;2023-04-26T00:36:08;101743.41;;;6.86;64.58
4705;BME280;2366;51.332;6.610;2023-04-26T00:38:34;101735.66;;;6.82;64.16
4705;BME280;2366;51.332;6.610;2023-04-26T00:41:00;101729.69;;;6.75;64.41
4705;BME280;2366;51.332;6.610;2023-04-26T00:43:25;101735.13;;;6.69;64.28
4705;BME280;2366;51.332;6.610;2023-04-26T00:45:51;101734.31;;;6.67;64.74
4705;BME280;2366;51.332;6.610;2023-04-26T00:48:16;101723.88;;;6.64;64.61
4705;BME280;2366;51.332;6.610;2023-04-26T00:50:42;101730.97;;;6.62;64.47
4705;BME280;2366;51.332;6.610;2023-04-26T00:53:08;101731.03;;;6.58;64.45
4705;BME280;2366;51.332;6.610;2023-04-26T00:55:34;101737.25;;;6.56;64.88
4705;BME280;2366;51.332;6.610;2023-04-26T00:57:59;101732.09;;;6.53;65.00
4705;BME280;2366;51.332;6.610;2023-04-26T01:00:25;101734.75;;;6.51;65.30
4705;BME280;2366;51.332;6.610;2023-04-26T01:02:51;101741.00;;;6.49;65.79
4705;BME280;2366;51.332;6.610;2023-04-26T01:05:17;101730.47;;;6.47;66.00
4705;BME280;2366;51.332;6.610;2023-04-26T01:07:42;101739.31;;;6.46;66.18
4705;BME280;2366;51.332;6.610;2023-04-26T01:10:09;101739.34;;;6.45;65.89
4705;BME280;2366;51.332;6.610;2023-04-26T01:12:35;101743.81;;;6.41;66.03
4705;BME280;2366;51.332;6.610;2023-04-26T01:15:02;101745.56;;;6.42;66.00
4705;BME280;2366;51.332;6.610;2023-04-26T01:17:28;101751.75;;;6.40;66.17
4705;BME280;2366;51.332;6.610;2023-04-26T01:19:53;101748.25;;;6.39;66.30
4705;BME280;2366;51.332;6.610;2023-04-26T01:22:19;101746.56;;;6.38;66.54
4705;BME280;2366;51.332;6.610;2023-04-26T01:24:47;101737.84;;;6.34;66.04
4705;BME280;2366;51.332;6.610;2023-04-26T01:27:14;101744.94;;;6.32;66.33
4705;BME280;2366;51.332;6.610;2023-04-26T01:29:41;101735.34;;;6.30;66.31
4705;BME280;2366;51.332;6.610;2023-04-26T01:32:06;101745.22;;;6.22;65.80
4705;BME280;2366;51.332;6.610;2023-04-26T01:34:31;101747.19;;;6.13;66.55
4705;BME280;2366;51.332;6.610;2023-04-26T01:36:59;101747.25;;;6.12;66.88
4705;BME280;2366;51.332;6.610;2023-04-26T01:39:25;101742.91;;;6.09;66.81
4705;BME280;2366;51.332;6.610;2023-04-26T01:41:50;101746.47;;;6.08;67.28
4705;BME280;2366;51.332;6.610;2023-04-26T01:44:16;101742.91;;;6.09;67.39
4705;BME280;2366;51.332;6.610;2023-04-26T01:46:41;101746.47;;;6.08;67.37
4705;BME280;2366;51.332;6.610;2023-04-26T01:49:07;101739.53;;;6.04;67.00
4705;BME280;2366;51.332;6.610;2023-04-26T01:51:32;101750.06;;;6.04;67.02
4705;BME280;2366;51.332;6.610;2023-04-26T01:53:58;101741.34;;;6.02;66.93
4705;BME280;2366;51.332;6.610;2023-04-26T01:56:24;101738.81;;;5.99;67.19
4705;BME280;2366;51.332;6.610;2023-04-26T01:58:50;101746.78;;;5.96;67.22
4705;BME280;2366;51.332;6.610;2023-04-26T02:01:15;101750.31;;;5.95;67.79
4705;BME280;2366;51.332;6.610;2023-04-26T02:03:41;101751.19;;;5.94;67.65
4705;BME280;2366;51.332;6.610;2023-04-26T02:06:06;101754.66;;;5.96;67.82
4705;BME280;2366;51.332;6.610;2023-04-26T02:08:32;101751.19;;;5.94;67.39
4705;BME280;2366;51.332;6.610;2023-04-26T02:10:57;101744.22;;;5.91;67.55
4705;BME280;2366;51.332;6.610;2023-04-26T02:13:23;101750.44;;;5.89;67.39
4705;BME280;2366;51.332;6.610;2023-04-26T02:15:49;101747.06;;;5.84;67.03
4705;BME280;2366;51.332;6.610;2023-04-26T02:18:15;101756.81;;;5.79;66.73
4705;BME280;2366;51.332;6.610;2023-04-26T02:20:42;101752.53;;;5.74;66.96
4705;BME280;2366;51.332;6.610;2023-04-26T02:23:09;101750.84;;;5.72;66.91
4705;BME280;2366;51.332;6.610;2023-04-26T02:25:35;101746.56;;;5.68;66.56
4705;BME280;2366;51.332;6.610;2023-04-26T02:28:00;101746.69;;;5.63;67.06
4705;BME280;2366;51.332;6.610;2023-04-26T02:30:25;101742.34;;;5.62;67.36
4705;BME280;2366;51.332;6.610;2023-04-26T02:32:54;101746.75;;;5.62;67.15
4705;BME280;2366;51.332;6.610;2023-04-26T02:35:21;101741.53;;;5.59;67.31
4705;BME280;2366;51.332;6.610;2023-04-26T02:37:46;101740.69;;;5.58;68.00
4705;BME280;2366;51.332;6.610;2023-04-26T02:40:13;101739.84;;;5.56;67.86
4705;BME280;2366;51.332;6.610;2023-04-26T02:42:39;101740.78;;;5.53;67.59
4705;BME280;2366;51.332;6.610;2023-04-26T02:45:05;101744.28;;;5.54;68.35
4705;BME280;2366;51.332;6.610;2023-04-26T02:47:31;101739.88;;;5.54;68.06
4705;BME280;2366;51.332;6.610;2023-04-26T02:49:57;101736.41;;;5.52;67.67
4705;BME280;2366;51.332;6.610;2023-04-26T02:52:22;101739.88;;;5.54;68.00
4705;BME280;2366;51.332;6.610;2023-04-26T02:54:47;101742.53;;;5.53;67.98
4705;BME280;2366;51.332;6.610;2023-04-26T02:57:13;101740.06;;;5.47;67.61
4705;BME280;2366;51.332;6.610;2023-04-26T02:59:38;101737.50;;;5.44;67.34
4705;BME280;2366;51.332;6.610;2023-04-26T03:02:03;101734.03;;;5.42;67.49
4705;BME280;2366;51.332;6.610;2023-04-26T03:04:32;101742.88;;;5.39;67.52
4705;BME280;2366;51.332;6.610;2023-04-26T03:06:58;101734.19;;;5.35;67.61
4705;BME280;2366;51.332;6.610;2023-04-26T03:09:23;101742.06;;;5.35;67.51
4705;BME280;2366;51.332;6.610;2023-04-26T03:11:48;101737.75;;;5.33;67.77
4705;BME280;2366;51.332;6.610;2023-04-26T03:14:14;101730.81;;;5.30;68.01
4705;BME280;2366;51.332;6.610;2023-04-26T03:16:40;101733.38;;;5.33;67.73
4705;BME280;2366;51.332;6.610;2023-04-26T03:19:06;101736.88;;;5.34;67.75
4705;BME280;2366;51.332;6.610;2023-04-26T03:21:32;101729.84;;;5.34;67.77
4705;BME280;2366;51.332;6.610;2023-04-26T03:23:58;101727.19;;;5.34;68.11
4705;BME280;2366;51.332;6.610;2023-04-26T03:26:23;101720.16;;;5.37;68.51
4705;BME280;2366;51.332;6.610;2023-04-26T03:28:48;101728.88;;;5.39;68.33
4705;BME280;2366;51.332;6.610;2023-04-26T03:31:14;101725.41;;;5.37;68.50
4705;BME280;2366;51.332;6.610;2023-04-26T03:33:39;101709.72;;;5.33;68.48
4705;BME280;2366;51.332;6.610;2023-04-26T03:36:05;101714.16;;;5.30;68.43
4705;BME280;2366;51.332;6.610;2023-04-26T03:38:31;101710.69;;;5.29;68.49
4705;BME280;2366;51.332;6.610;2023-04-26T03:40:56;101724.75;;;5.27;68.20
4705;BME280;2366;51.332;6.610;2023-04-26T03:43:22;101713.44;;;5.23;68.07
4705;BME280;2366;51.332;6.610;2023-04-26T03:45:48;101711.81;;;5.18;68.09
4705;BME280;2366;51.332;6.610;2023-04-26T03:48:14;101710.13;;;5.15;68.15
4705;BME280;2366;51.332;6.610;2023-04-26T03:50:40;101720.72;;;5.12;68.12
4705;BME280;2366;51.332;6.610;2023-04-26T03:53:06;101711.13;;;5.09;68.61
4705;BME280;2366;51.332;6.610;2023-04-26T03:55:32;101714.56;;;5.11;68.98
4705;BME280;2366;51.332;6.610;2023-04-26T03:57:57;101713.66;;;5.14;68.95
4705;BME280;2366;51.332;6.610;2023-04-26T04:00:22;101712.78;;;5.13;69.04
4705;BME280;2366;51.332;6.610;2023-04-26T04:02:48;101727.69;;;5.13;69.17
4705;BME280;2366;51.332;6.610;2023-04-26T04:05:14;101720.63;;;5.15;68.92
4705;BME280;2366;51.332;6.610;2023-04-26T04:07:39;101718.00;;;5.17;68.94
4705;BME280;2366;51.332;6.610;2023-04-26T04:10:05;101714.44;;;5.18;68.60
4705;BME280;2366;51.332;6.610;2023-04-26T04:12:31;101718.84;;;5.17;68.90
4705;BME280;2366;51.332;6.610;2023-04-26T04:14:56;101716.19;;;5.19;68.80
4705;BME280;2366;51.332;6.610;2023-04-26T04:17:22;101715.28;;;5.18;69.38
4705;BME280;2366;51.332;6.610;2023-04-26T04:19:47;101723.97;;;5.23;69.50
4705;BME280;2366;51.332;6.610;2023-04-26T04:22:13;101729.09;;;5.29;69.50
4705;BME280;2366;51.332;6.610;2023-04-26T04:24:38;101730.75;;;5.33;69.23
4705;BME280;2366;51.332;6.610;2023-04-26T04:27:03;101741.03;;;5.43;69.46
4705;BME280;2366;51.332;6.610;2023-04-26T04:29:29;101735.56;;;5.52;69.16
4705;BME280;2366;51.332;6.610;2023-04-26T04:31:55;101737.13;;;5.59;69.28
4705;BME280;2366;51.332;6.610;2023-04-26T04:34:20;101731.66;;;5.68;69.02
4705;BME280;2366;51.332;6.610;2023-04-26T04:36:46;101735.03;;;5.73;68.22
4705;BME280;2366;51.332;6.610;2023-04-26T04:39:11;101741.97;;;5.76;68.12
4705;BME280;2366;51.332;6.610;2023-04-26T04:41:41;101734.03;;;5.79;68.25
4705;BME280;2366;51.332;6.610;2023-04-26T04:44:13;101735.63;;;5.85;68.49
4705;BME280;2366;51.332;6.610;2023-04-26T04:46:40;101744.13;;;5.96;68.60
4705;BME280;2366;51.332;6.610;2023-04-26T04:49:05;101752.19;;;6.24;68.18
4705;BME280;2366;51.332;6.610;2023-04-26T04:51:34;101746.94;;;6.55;68.19
4705;BME280;2366;51.332;6.610;2023-04-26T04:54:15;101745.44;;;7.36;66.49
4705;BME280;2366;51.332;6.610;2023-04-26T04:56:42;101743.97;;;7.80;65.24
4705;BME280;2366;51.332;6.610;2023-04-26T04:59:07;101752.59;;;8.12;64.52
4705;BME280;2366;51.332;6.610;2023-04-26T05:01:33;101746.72;;;8.54;62.44
4705;BME280;2366;51.332;6.610;2023-04-26T05:04:00;101741.97;;;8.88;62.05
4705;BME280;2366;51.332;6.610;2023-04-26T05:06:28;101750.94;;;9.07;61.27
4705;BME280;2366;51.332;6.610;2023-04-26T05:08:55;101748.34;;;9.28;61.33
4705;BME280;2366;51.332;6.610;2023-04-26T05:11:20;101756.72;;;9.39;60.44
4705;BME280;2366;51.332;6.610;2023-04-26T05:13:46;101764.25;;;9.72;59.83
4705;BME280;2366;51.332;6.610;2023-04-26T05:16:12;101764.75;;;10.02;58.33
4705;BME280;2366;51.332;6.610;2023-04-26T05:18:37;101761.50;;;10.16;58.43
4705;BME280;2366;51.332;6.610;2023-04-26T05:21:03;101765.47;;;10.05;58.76
4705;BME280;2366;51.332;6.610;2023-04-26T05:23:28;101770.28;;;10.78;58.00
4705;BME280;2366;51.332;6.610;2023-04-26T05:25:55;101770.38;;;11.88;55.33
4705;BME280;2366;51.332;6.610;2023-04-26T05:28:20;101766.00;;;13.68;51.81
4705;BME280;2366;51.332;6.610;2023-04-26T05:30:45;101780.75;;;15.08;46.21
4705;BME280;2366;51.332;6.610;2023-04-26T05:33:11;101780.56;;;16.32;43.67
4705;BME280;2366;51.332;6.610;2023-04-26T05:35:38;101778.66;;;17.35;40.86
4705;BME280;2366;51.332;6.610;2023-04-26T05:38:03;101779.75;;;17.81;39.03
4705;BME280;2366;51.332;6.610;2023-04-26T05:40:29;101778.75;;;18.41;37.12
4705;BME280;2366;51.332;6.610;2023-04-26T05:42:55;101780.03;;;18.94;36.70
4705;BME280;2366;51.332;6.610;2023-04-26T05:45:21;101784.34;;;19.40;34.84
4705;BME280;2366;51.332;6.610;2023-04-26T05:47:47;101789.00;;;19.38;34.49
4705;BME280;2366;51.332;6.610;2023-04-26T05:50:12;101783.31;;;19.75;34.27
4705;BME280;2366;51.332;6.610;2023-04-26T05:52:37;101782.75;;;20.34;33.07
4705;BME280;2366;51.332;6.610;2023-04-26T05:55:03;101787.63;;;20.61;32.10
4705;BME280;2366;51.332;6.610;2023-04-26T05:57:30;101789.78;;;20.67;32.04
4705;BME280;2366;51.332;6.610;2023-04-26T05:59:55;101788.47;;;20.92;32.07
4705;BME280;2366;51.332;6.610;2023-04-26T06:02:21;101790.00;;;21.36;31.91
4705;BME280;2366;51.332;6.610;2023-04-26T06:04:46;101788.94;;;21.07;31.63
4705;BME280;2366;51.332;6.610;2023-04-26T06:07:12;101787.69;;;20.50;31.33
4705;BME280;2366;51.332;6.610;2023-04-26T06:09:37;101785.47;;;19.81;33.10
4705;BME280;2366;51.332;6.610;2023-04-26T06:12:03;101790.56;;;19.95;32.43
4705;BME280;2366;51.332;6.610;2023-04-26T06:14:28;101788.75;;;20.89;31.47
4705;BME280;2366;51.332;6.610;2023-04-26T06:16:55;101791.34;;;21.01;31.36
4705;BME280;2366;51.332;6.610;2023-04-26T06:19:20;101783.00;;;21.83;30.59
4705;BME280;2366;51.332;6.610;2023-04-26T06:21:46;101795.38;;;21.95;29.77
4705;BME280;2366;51.332;6.610;2023-04-26T06:24:13;101800.91;;;21.94;30.13
4705;BME280;2366;51.332;6.610;2023-04-26T06:26:38;101798.34;;;21.83;29.62
4705;BME280;2366;51.332;6.610;2023-04-26T06:29:03;101798.91;;;21.77;29.99
4705;BME280;2366;51.332;6.610;2023-04-26T06:31:30;101798.03;;;22.05;29.92
4705;BME280;2366;51.332;6.610;2023-04-26T06:33:55;101796.38;;;21.85;29.98
4705;BME280;2366;51.332;6.610;2023-04-26T06:36:20;101795.22;;;21.58;29.85
4705;BME280;2366;51.332;6.610;2023-04-26T06:38:46;101790.50;;;20.69;31.69
4705;BME280;2366;51.332;6.610;2023-04-26T06:41:11;101798.44;;;21.02;30.74
4705;BME280;2366;51.332;6.610;2023-04-26T06:43:36;101801.16;;;20.71;31.07
4705;BME280;2366;51.332;6.610;2023-04-26T06:46:02;101792.88;;;20.00;32.23
4705;BME280;2366;51.332;6.610;2023-04-26T06:48:28;101791.28;;;20.18;31.64
4705;BME280;2366;51.332;6.610;2023-04-26T06:50:53;101799.44;;;21.01;30.92
4705;BME280;2366;51.332;6.610;2023-04-26T06:53:18;101797.91;;;22.36;28.64
4705;BME280;2366;51.332;6.610;2023-04-26T06:55:44;101803.22;;;23.58;27.69
4705;BME280;2366;51.332;6.610;2023-04-26T06:58:10;101803.91;;;23.88;26.56
4705;BME280;2366;51.332;6.610;2023-04-26T07:00:35;101800.91;;;23.63;26.33
4705;BME280;2366;51.332;6.610;2023-04-26T07:03:00;101800.56;;;22.55;27.86
4705;BME280;2366;51.332;6.610;2023-04-26T07:05:26;101796.78;;;21.90;27.84
4705;BME280;2366;51.332;6.610;2023-04-26T07:07:51;101798.44;;;21.02;29.89
4705;BME280;2366;51.332;6.610;2023-04-26T07:10:17;101799.88;;;20.75;30.33
4705;BME280;2366;51.332;6.610;2023-04-26T07:12:42;101792.94;;;21.13;30.47
4705;BME280;2366;51.332;6.610;2023-04-26T07:15:08;101792.75;;;22.52;29.06
4705;BME280;2366;51.332;6.610;2023-04-26T07:17:34;101797.31;;;22.89;27.80
4705;BME280;2366;51.332;6.610;2023-04-26T07:19:59;101798.81;;;23.57;26.69
4705;BME280;2366;51.332;6.610;2023-04-26T07:22:25;101798.28;;;23.08;27.25
4705;BME280;2366;51.332;6.610;2023-04-26T07:24:50;101798.78;;;21.18;29.15
4705;BME280;2366;51.332;6.610;2023-04-26T07:27:15;101798.47;;;19.76;30.90
4705;BME280;2366;51.332;6.610;2023-04-26T07:29:41;101792.78;;;19.90;31.20
4705;BME280;2366;51.332;6.610;2023-04-26T07:32:06;101796.16;;;20.24;30.66
4705;BME280;2366;51.332;6.610;2023-04-26T07:34:32;101799.00;;;19.90;31.31
4705;BME280;2366;51.332;6.610;2023-04-26T07:36:57;101798.59;;;19.19;31.59
4705;BME280;2366;51.332;6.610;2023-04-26T07:39:23;101803.25;;;18.01;33.26
4705;BME280;2366;51.332;6.610;2023-04-26T07:41:48;101793.72;;;17.49;33.79
4705;BME280;2366;51.332;6.610;2023-04-26T07:44:14;101797.97;;;17.89;34.42
4705;BME280;2366;51.332;6.610;2023-04-26T07:46:39;101793.22;;;18.97;33.36
4705;BME280;2366;51.332;6.610;2023-04-26T07:49:05;101784.69;;;18.22;33.16
4705;BME280;2366;51.332;6.610;2023-04-26T07:51:30;101787.66;;;17.58;34.43
4705;BME280;2366;51.332;6.610;2023-04-26T07:53:56;101787.78;;;17.33;35.28
4705;BME280;2366;51.332;6.610;2023-04-26T07:56:22;101793.97;;;17.09;35.30
4705;BME280;2366;51.332;6.610;2023-04-26T07:58:51;101793.53;;;16.38;35.63
4705;BME280;2366;51.332;6.610;2023-04-26T08:01:16;101793.22;;;16.43;36.33
4705;BME280;2366;51.332;6.610;2023-04-26T08:03:41;101785.41;;;16.66;35.83
4705;BME280;2366;51.332;6.610;2023-04-26T08:06:07;101790.84;;;18.00;34.71
4705;BME280;2366;51.332;6.610;2023-04-26T08:08:33;101786.56;;;19.46;32.00
4705;BME280;2366;51.332;6.610;2023-04-26T08:11:06;101785.69;;;21.04;29.79
4705;BME280;2366;51.332;6.610;2023-04-26T08:13:32;101785.63;;;20.00;28.97
4705;BME280;2366;51.332;6.610;2023-04-26T08:15:57;101788.47;;;19.55;30.69
4705;BME280;2366;51.332;6.610;2023-04-26T08:18:22;101798.94;;;19.15;31.71
4705;BME280;2366;51.332;6.610;2023-04-26T08:20:48;101790.97;;;18.10;32.56
4705;BME280;2366;51.332;6.610;2023-04-26T08:23:13;101780.31;;;17.12;34.31
4705;BME280;2366;51.332;6.610;2023-04-26T08:25:38;101790.56;;;16.81;35.61
4705;BME280;2366;51.332;6.610;2023-04-26T08:28:04;101792.13;;;16.46;37.17
4705;BME280;2366;51.332;6.610;2023-04-26T08:30:32;101788.59;;;16.32;37.40
4705;BME280;2366;51.332;6.610;2023-04-26T08:32:57;101794.78;;;16.07;37.74
4705;BME280;2366;51.332;6.610;2023-04-26T08:35:22;101792.81;;;15.96;37.80
4705;BME280;2366;51.332;6.610;2023-04-26T08:37:48;101802.19;;;15.89;38.02
4705;BME280;2366;51.332;6.610;2023-04-26T08:40:13;101800.28;;;15.91;38.36
4705;BME280;2366;51.332;6.610;2023-04-26T08:42:43;101795.50;;;15.96;37.81
4705;BME280;2366;51.332;6.610;2023-04-26T08:45:09;101805.69;;;15.77;37.59
4705;BME280;2366;51.332;6.610;2023-04-26T08:47:42;101811.13;;;15.75;37.85
4705;BME280;2366;51.332;6.610;2023-04-26T08:50:12;101801.50;;;15.73;37.76
4705;BME280;2366;51.332;6.610;2023-04-26T08:52:40;101804.69;;;16.83;36.79
4705;BME280;2366;51.332;6.610;2023-04-26T08:55:07;101803.16;;;17.79;34.70
4705;BME280;2366;51.332;6.610;2023-04-26T08:57:34;101800.47;;;17.79;34.30
4705;BME280;2366;51.332;6.610;2023-04-26T09:00:04;101800.44;;;17.31;35.03
4705;BME280;2366;51.332;6.610;2023-04-26T09:02:30;101803.41;;;16.76;36.14
4705;BME280;2366;51.332;6.610;2023-04-26T09:04:56;101814.19;;;16.49;36.31
4705;BME280;2366;51.332;6.610;2023-04-26T09:09:54;101809.16;;;17.82;35.04
4705;BME280;2366;51.332;6.610;2023-04-26T09:12:21;101810.59;;;18.46;33.59
4705;BME280;2366;51.332;6.610;2023-04-26T09:14:47;101813.97;;;18.95;32.78
4705;BME280;2366;51.332;6.610;2023-04-26T09:19:51;101809.94;;;20.31;29.43
4705;BME280;2366;51.332;6.610;2023-04-26T09:22:31;101802.47;;;21.17;28.39
4705;BME280;2366;51.332;6.610;2023-04-26T09:24:57;101806.72;;;22.38;26.04
4705;BME280;2366;51.332;6.610;2023-04-26T09:27:32;101795.09;;;23.40;24.87
4705;BME280;2366;51.332;6.610;2023-04-26T09:30:01;101798.25;;;23.99;24.79
4705;BME280;2366;51.332;6.610;2023-04-26T09:32:42;101789.25;;;23.17;25.03
4705;BME280;2366;51.332;6.610;2023-04-26T09:35:22;101787.53;;;22.41;25.20
4705;BME280;2366;51.332;6.610;2023-04-26T09:37:53;101791.38;;;22.19;25.92
4705;BME280;2366;51.332;6.610;2023-04-26T09:40:22;101786.84;;;20.49;27.12
4705;BME280;2366;51.332;6.610;2023-04-26T09:43:08;101788.69;;;19.08;29.19
4705;BME280;2366;51.332;6.610;2023-04-26T09:48:24;101773.84;;;18.24;30.38
4705;BME280;2366;51.332;6.610;2023-04-26T09:50:55;101772.34;;;18.20;29.87
4705;BME280;2366;51.332;6.610;2023-04-26T09:53:37;101775.22;;;18.63;29.82
4705;BME280;2366;51.332;6.610;2023-04-26T09:56:17;101770.44;;;19.35;28.70
4705;BME280;2366;51.332;6.610;2023-04-26T10:01:09;101775.34;;;18.73;29.27
4705;BME280;2366;51.332;6.610;2023-04-26T10:03:36;101772.47;;;17.83;31.06
4705;BME280;2366;51.332;6.610;2023-04-26T10:06:02;101768.97;;;17.45;31.81
4705;BME280;2366;51.332;6.610;2023-04-26T10:08:30;101772.50;;;17.46;32.20
4705;BME280;2366;51.332;6.610;2023-04-26T10:10:56;101777.53;;;17.75;32.28
4705;BME280;2366;51.332;6.610;2023-04-26T10:13:22;101776.97;;;18.06;31.57
4705;BME280;2366;51.332;6.610;2023-04-26T10:15:47;101772.19;;;18.57;29.89
4705;BME280;2366;51.332;6.610;2023-04-26T10:18:13;101777.03;;;18.52;29.98
4705;BME280;2366;51.332;6.610;2023-04-26T10:20:41;101769.38;;;18.70;30.01
4705;BME280;2366;51.332;6.610;2023-04-26T10:23:18;101773.03;;;19.25;28.66
4705;BME280;2366;51.332;6.610;2023-04-26T10:25:46;101766.44;;;19.73;28.29
4705;BME280;2366;51.332;6.610;2023-04-26T10:28:12;101760.63;;;19.56;29.60
4705;BME280;2366;51.332;6.610;2023-04-26T10:30:54;101758.38;;;19.61;28.09
4705;BME280;2366;51.332;6.610;2023-04-26T10:33:20;101758.25;;;19.63;28.28
4705;BME280;2366;51.332;6.610;2023-04-26T10:38:30;101761.84;;;19.41;28.48
4705;BME280;2366;51.332;6.610;2023-04-26T10:41:29;101759.81;;;19.33;26.06
4705;BME280;2366;51.332;6.610;2023-04-26T10:43:56;101755.34;;;19.11;26.71
4705;BME280;2366;51.332;6.610;2023-04-26T10:46:35;101762.31;;;18.80;28.61
4705;BME280;2366;51.332;6.610;2023-04-26T10:49:18;101754.69;;;18.40;28.49
4705;BME280;2366;51.332;6.610;2023-04-26T10:52:10;101743.13;;;17.20;29.09
4705;BME280;2366;51.332;6.610;2023-04-26T10:54:55;101742.94;;;16.98;30.23
4705;BME280;2366;51.332;6.610;2023-04-26T10:57:22;101745.13;;;17.30;30.35
4705;BME280;2366;51.332;6.610;2023-04-26T11:03:05;101744.44;;;17.39;30.43
4705;BME280;2366;51.332;6.610;2023-04-26T11:05:53;101746.19;;;17.99;30.63
4705;BME280;2366;51.332;6.610;2023-04-26T11:08:29;101751.66;;;18.67;29.21
4705;BME280;2366;51.332;6.610;2023-04-26T11:13:37;101740.06;;;18.44;27.01
4705;BME280;2366;51.332;6.610;2023-04-26T11:18:34;101745.72;;;18.05;29.01
4705;BME280;2366;51.332;6.610;2023-04-26T11:21:00;101747.03;;;18.00;29.38
4705;BME280;2366;51.332;6.610;2023-04-26T11:23:27;101747.16;;;17.98;29.05
4705;BME280;2366;51.332;6.610;2023-04-26T11:25:56;101739.16;;;18.10;28.81
4705;BME280;2366;51.332;6.610;2023-04-26T11:28:21;101735.72;;;18.08;28.82
4705;BME280;2366;51.332;6.610;2023-04-26T11:30:50;101734.69;;;18.33;28.09
4705;BME280;2366;51.332;6.610;2023-04-26T11:33:17;101726.53;;;18.45;28.91
4705;BME280;2366;51.332;6.610;2023-04-26T11:35:45;101725.66;;;18.56;27.83
4705;BME280;2366;51.332;6.610;2023-04-26T11:38:11;101721.16;;;18.91;28.03
4705;BME280;2366;51.332;6.610;2023-04-26T11:40:36;101719.16;;;19.04;27.32
4705;BME280;2366;51.332;6.610;2023-04-26T11:43:06;101714.91;;;19.01;26.85
4705;BME280;2366;51.332;6.610;2023-04-26T11:45:33;101715.28;;;19.40;27.22
4705;BME280;2366;51.332;6.610;2023-04-26T11:48:04;101714.69;;;19.69;27.12
4705;BME280;2366;51.332;6.610;2023-04-26T11:50:31;101720.84;;;19.92;27.68
4705;BME280;2366;51.332;6.610;2023-04-26T11:52:59;101714.63;;;19.27;27.82
4705;BME280;2366;51.332;6.610;2023-04-26T11:55:31;101712.72;;;18.95;27.14
4705;BME280;2366;51.332;6.610;2023-04-26T11:57:59;101715.41;;;18.73;27.01
4705;BME280;2366;51.332;6.610;2023-04-26T12:00:25;101715.53;;;18.60;28.15
4705;BME280;2366;51.332;6.610;2023-04-26T12:02:51;101723.84;;;18.68;29.12
4705;BME280;2366;51.332;6.610;2023-04-26T12:05:35;101727.22;;;18.36;28.90
4705;BME280;2366;51.332;6.610;2023-04-26T12:08:01;101726.09;;;18.16;28.40
4705;BME280;2366;51.332;6.610;2023-04-26T12:10:29;101718.91;;;18.17;27.68
4705;BME280;2366;51.332;6.610;2023-04-26T12:12:57;101717.63;;;17.63;28.12
4705;BME280;2366;51.332;6.610;2023-04-26T12:15:25;101718.50;;;17.63;28.28
4705;BME280;2366;51.332;6.610;2023-04-26T12:20:32;101718.69;;;18.65;28.87
4705;BME280;2366;51.332;6.610;2023-04-26T12:23:07;101718.22;;;18.71;29.13
4705;BME280;2366;51.332;6.610;2023-04-26T12:25:34;101719.34;;;18.91;28.86
4705;BME280;2366;51.332;6.610;2023-04-26T12:28:01;101718.34;;;18.92;27.82
4705;BME280;2366;51.332;6.610;2023-04-26T12:30:28;101715.91;;;18.78;27.19
4705;BME280;2366;51.332;6.610;2023-04-26T12:32:54;101717.25;;;18.72;28.29
4705;BME280;2366;51.332;6.610;2023-04-26T12:35:20;101717.44;;;19.14;28.10
4705;BME280;2366;51.332;6.610;2023-04-26T12:37:46;101720.56;;;19.42;27.41
4705;BME280;2366;51.332;6.610;2023-04-26T12:40:12;101712.84;;;19.48;27.36
4705;BME280;2366;51.332;6.610;2023-04-26T12:42:37;101711.25;;;19.99;27.17
4705;BME280;2366;51.332;6.610;2023-04-26T12:45:03;101713.94;;;19.99;26.66
4705;BME280;2366;51.332;6.610;2023-04-26T12:47:29;101715.94;;;19.33;26.21
4705;BME280;2366;51.332;6.610;2023-04-26T12:49:55;101706.38;;;18.17;25.55
4705;BME280;2366;51.332;6.610;2023-04-26T12:52:23;101703.88;;;17.19;27.82
4705;BME280;2366;51.332;6.610;2023-04-26T12:54:48;101708.13;;;17.94;27.37
4705;BME280;2366;51.332;6.610;2023-04-26T12:57:13;101716.56;;;18.01;27.86
4705;BME280;2366;51.332;6.610;2023-04-26T12:59:39;101721.56;;;17.94;27.81
4705;BME280;2366;51.332;6.610;2023-04-26T13:02:05;101715.97;;;17.49;28.61
4705;BME280;2366;51.332;6.610;2023-04-26T13:04:32;101721.75;;;16.95;31.18
4705;BME280;2366;51.332;6.610;2023-04-26T13:06:59;101715.16;;;16.88;31.04
4705;BME280;2366;51.332;6.610;2023-04-26T13:09:25;101724.88;;;17.25;29.82
4705;BME280;2366;51.332;6.610;2023-04-26T13:11:51;101717.94;;;16.48;29.77
4705;BME280;2366;51.332;6.610;2023-04-26T13:14:16;101713.47;;;16.48;31.03
4705;BME280;2366;51.332;6.610;2023-04-26T13:16:41;101713.97;;;16.66;29.67
4705;BME280;2366;51.332;6.610;2023-04-26T13:19:09;101719.25;;;16.29;28.71
4705;BME280;2366;51.332;6.610;2023-04-26T13:21:35;101711.94;;;15.93;29.34
4705;BME280;2366;51.332;6.610;2023-04-26T13:24:01;101713.47;;;16.35;29.49
4705;BME280;2366;51.332;6.610;2023-04-26T13:26:26;101713.75;;;16.69;29.52
4705;BME280;2366;51.332;6.610;2023-04-26T13:28:52;101715.59;;;16.81;29.32
4705;BME280;2366;51.332;6.610;2023-04-26T13:31:17;101709.16;;;16.33;29.72
4705;BME280;2366;51.332;6.610;2023-04-26T13:33:43;101711.63;;;16.23;31.59
4705;BME280;2366;51.332;6.610;2023-04-26T13:36:09;101713.63;;;16.71;29.91
4705;BME280;2366;51.332;6.610;2023-04-26T13:38:35;101715.94;;;17.14;28.96